Johannesburg, South Africa
Current Conditions -  °F | °C
As of 2:00 AM on Monday 22 Dec 2014 (Local Time) from FAOR Reporting Station
Clear Clear  
Wind Chill: 61°   Ceiling: Unl
Heat Index: 61°   Visibility: 6mi
Dew Point: 54°   Wind: 5mph
Humidity: 77%   Direction: 70°ENE
Pressure: 30.18"   Gusts: NA
Location:  26.19°S, 28.04°E
Report Text: FAOR 220000Z 07004KT CAVOK 16/12 Q1022 NOSIG
Loading
Personal Weather Stations






























Interactive Weather Map New forecast layout! Learn more

10-Day Weather Forecast

Advertisements
Track Severe Weather on mobile